Time;durP1;ratioP1;P1;durP2;ratioP2;P2;SDS_P1;SDS_P2;PMS_P1;PMS_P2;Temp;Humidity;BMP_temperature;BMP_pressure;BME280_temperature;BME280_humidity;BME280_pressure;Samples;Min_cycle;Max_cycle;Signal;HPM_P1;HPM_P2
2021/12/28 04:01:16;;;;;;;4.00;1.47;;;8.70;84.70;;;;;;5801474;22;20495;-74
2021/12/28 04:03:43;;;;;;;2.50;1.00;;;8.80;84.40;;;;;;5033765;28;20431;-74
2021/12/28 04:06:10;;;;;;;2.83;1.27;;;8.80;84.50;;;;;;5033763;28;20443;-74
2021/12/28 04:08:39;;;;;;;3.53;1.47;;;9.00;84.00;;;;;;5033676;28;20450;-74
2021/12/28 04:11:15;;;;;;;3.30;1.47;;;9.00;83.70;;;;;;5033192;28;20471;-74
2021/12/28 04:13:44;;;;;;;3.30;1.00;;;9.00;83.80;;;;;;5066121;22;20858;-75
2021/12/28 04:16:12;;;;;;;2.70;0.90;;;9.00;83.50;;;;;;5053520;28;20840;-75
2021/12/28 04:18:39;;;;;;;3.50;1.20;;;9.10;83.30;;;;;;5053390;28;20482;-75
2021/12/28 04:21:06;;;;;;;3.10;1.17;;;9.00;82.70;;;;;;5053463;28;20447;-75
2021/12/28 04:23:33;;;;;;;4.23;1.40;;;9.00;83.90;;;;;;5053326;28;20520;-75
2021/12/28 04:26:00;;;;;;;3.07;1.17;;;9.10;83.40;;;;;;5053354;28;20455;-75
2021/12/28 04:28:27;;;;;;;4.03;1.30;;;9.30;82.90;;;;;;5053401;28;20450;-75
2021/12/28 04:30:54;;;;;;;3.77;1.20;;;9.30;82.30;;;;;;5053053;28;20992;-75
2021/12/28 04:33:22;;;;;;;2.60;1.30;;;9.40;82.30;;;;;;5053280;28;20471;-75
2021/12/28 04:35:49;;;;;;;2.63;1.00;;;9.30;82.60;;;;;;5053295;28;20450;-75
2021/12/28 04:38:16;;;;;;;2.93;1.27;;;9.20;82.90;;;;;;5053266;28;20443;-75
2021/12/28 04:40:43;;;;;;;2.77;1.30;;;9.10;83.00;;;;;;5053177;28;20478;-75
2021/12/28 04:43:11;;;;;;;2.53;0.90;;;8.90;84.30;;;;;;5053149;28;20536;-74
2021/12/28 04:45:38;;;;;;;2.17;1.00;;;9.10;83.70;;;;;;5052731;28;20966;-75
2021/12/28 04:48:07;;;;;;;2.90;1.10;;;9.10;83.60;;;;;;5053190;28;20864;-75
2021/12/28 04:50:38;;;;;;;4.10;1.43;;;9.30;83.10;;;;;;5053169;28;20454;-76
2021/12/28 04:53:08;;;;;;;4.00;1.20;;;9.50;82.70;;;;;;5053018;28;20808;-75
2021/12/28 04:55:36;;;;;;;2.40;1.03;;;9.40;82.60;;;;;;5053077;28;20490;-75
2021/12/28 04:58:02;;;;;;;3.13;1.00;;;9.50;82.60;;;;;;5053086;28;20450;-76
2021/12/28 05:00:29;;;;;;;3.50;1.23;;;9.60;82.30;;;;;;5053007;28;20536;-76
2021/12/28 05:02:57;;;;;;;2.70;1.10;;;9.70;82.10;;;;;;5052944;28;20454;-76
2021/12/28 05:05:24;;;;;;;2.40;1.07;;;9.80;82.10;;;;;;5052676;28;20450;-76
2021/12/28 05:07:53;;;;;;;3.40;1.30;;;9.80;81.90;;;;;;5052700;28;20964;-76
2021/12/28 05:10:20;;;;;;;2.70;1.00;;;9.70;82.10;;;;;;5055014;28;20446;-75
2021/12/28 05:12:49;;;;;;;4.30;1.13;;;9.70;82.00;;;;;;5056610;28;20453;-76
2021/12/28 05:15:17;;;;;;;2.50;0.90;;;9.80;82.00;;;;;;5056749;28;20449;-76
2021/12/28 05:17:44;;;;;;;3.17;1.17;;;9.80;81.80;;;;;;5056716;28;20500;-76
2021/12/28 05:20:12;;;;;;;3.70;1.43;;;9.50;82.70;;;;;;5056616;28;20573;-76
2021/12/28 05:22:39;;;;;;;2.10;0.80;;;9.50;82.80;;;;;;5056543;28;20442;-76
2021/12/28 05:25:08;;;;;;;2.83;0.97;;;9.30;83.40;;;;;;5056602;28;20491;-76
2021/12/28 05:27:35;;;;;;;2.40;1.00;;;9.10;84.40;;;;;;5056540;28;20450;-75
2021/12/28 05:30:03;;;;;;;3.57;1.00;;;9.10;84.40;;;;;;5056492;28;20446;-76
2021/12/28 05:32:30;;;;;;;2.60;0.80;;;9.20;84.80;;;;;;5056425;28;20500;-76
2021/12/28 05:34:57;;;;;;;2.23;1.07;;;8.80;85.30;;;;;;5056338;28;20519;-76
2021/12/28 05:37:23;;;;;;;4.10;0.93;;;8.90;86.00;;;;;;5056404;28;20795;-76
2021/12/28 05:39:50;;;;;;;2.80;1.03;;;8.90;85.90;;;;;;5056313;28;20478;-76
2021/12/28 05:42:18;;;;;;;2.30;1.10;;;9.00;85.30;;;;;;5056001;28;20972;-76
2021/12/28 05:44:45;;;;;;;2.53;0.90;;;9.00;85.50;;;;;;5056179;28;20466;-76
2021/12/28 05:47:12;;;;;;;2.30;1.10;;;8.90;85.50;;;;;;5056215;28;20442;-76
2021/12/28 05:49:39;;;;;;;3.50;1.90;;;9.10;85.80;;;;;;5056192;28;20447;-75
2021/12/28 05:52:06;;;;;;;2.20;0.90;;;9.10;85.60;;;;;;5055747;28;20864;-75
2021/12/28 05:54:33;;;;;;;3.40;1.00;;;9.20;85.40;;;;;;5056015;28;20474;-76
2021/12/28 05:57:00;;;;;;;2.13;0.90;;;9.40;84.90;;;;;;5055999;28;20446;-76
2021/12/28 05:59:28;;;;;;;2.80;1.10;;;9.40;84.80;;;;;;5055919;28;20490;-76
2021/12/28 06:01:55;;;;;;;2.30;1.00;;;9.50;84.60;;;;;;5055879;28;20496;-76
2021/12/28 06:04:22;;;;;;;2.00;0.80;;;9.40;84.40;;;;;;5056073;28;20561;-76
2021/12/28 06:06:49;;;;;;;2.40;0.93;;;9.20;85.10;;;;;;5055834;28;20496;-76
2021/12/28 06:09:16;;;;;;;2.10;0.80;;;9.40;85.30;;;;;;5055496;28;20929;-76
2021/12/28 06:11:42;;;;;;;2.00;0.70;;;9.30;84.90;;;;;;5055712;28;20453;-75
2021/12/28 06:14:09;;;;;;;2.50;1.17;;;9.20;85.90;;;;;;5055175;28;20844;-75
2021/12/28 06:16:38;;;;;;;3.07;0.90;;;9.00;85.90;;;;;;5055348;28;20933;-75
2021/12/28 06:19:05;;;;;;;2.30;0.80;;;8.90;86.30;;;;;;5055571;28;20485;-75
2021/12/28 06:21:32;;;;;;;2.40;0.90;;;8.70;87.20;;;;;;5055076;28;20865;-75
2021/12/28 06:23:59;;;;;;;2.50;0.80;;;8.50;88.10;;;;;;5055990;28;20473;-75
2021/12/28 06:26:26;;;;;;;3.90;0.90;;;8.40;88.80;;;;;;5055489;28;20533;-76
2021/12/28 06:28:53;;;;;;;2.20;0.83;;;8.50;89.10;;;;;;5055086;28;20938;-76
2021/12/28 06:31:19;;;;;;;2.10;0.70;;;8.50;89.00;;;;;;5055400;28;20837;-75
2021/12/28 06:33:48;;;;;;;2.20;0.80;;;8.50;88.90;;;;;;5055261;28;20523;-75
2021/12/28 06:36:14;;;;;;;1.90;0.70;;;8.40;89.40;;;;;;5055316;28;20442;-75
2021/12/28 06:38:41;;;;;;;2.00;0.80;;;8.30;89.60;;;;;;5055278;28;20447;-75
2021/12/28 06:41:09;;;;;;;2.20;1.00;;;8.30;90.10;;;;;;5054908;28;20996;-75
2021/12/28 06:43:35;;;;;;;3.33;0.80;;;8.40;90.30;;;;;;5055150;28;20470;-75
2021/12/28 06:46:02;;;;;;;2.27;0.93;;;8.30;89.80;;;;;;5055102;28;20446;-75
2021/12/28 06:48:29;;;;;;;2.40;0.90;;;8.20;90.00;;;;;;5054709;28;20941;-75
2021/12/28 06:50:57;;;;;;;1.93;0.77;;;8.20;90.20;;;;;;5054657;28;20937;-75
2021/12/28 06:53:24;;;;;;;2.20;0.90;;;8.30;90.20;;;;;;5054538;28;20884;-75
2021/12/28 06:55:50;;;;;;;2.27;0.77;;;8.30;90.50;;;;;;5054870;28;20512;-75
2021/12/28 06:58:17;;;;;;;2.30;0.90;;;8.30;90.30;;;;;;5054910;28;20446;-76
2021/12/28 07:00:44;;;;;;;2.20;0.80;;;8.30;90.00;;;;;;5054761;28;20474;-75
2021/12/28 07:03:11;;;;;;;1.90;0.70;;;8.30;90.10;;;;;;5054295;28;21042;-75
2021/12/28 07:05:38;;;;;;;2.10;0.80;;;8.30;90.00;;;;;;5054740;28;20450;-75
2021/12/28 07:08:06;;;;;;;2.00;0.70;;;8.40;90.00;;;;;;5054664;28;20446;-75
2021/12/28 07:10:33;;;;;;;2.50;0.70;;;8.40;89.30;;;;;;5054297;28;20844;-75
2021/12/28 07:12:59;;;;;;;2.63;0.70;;;8.50;89.70;;;;;;5054196;28;20888;-75
2021/12/28 07:15:26;;;;;;;1.97;0.70;;;8.50;89.50;;;;;;5054570;28;20430;-75
2021/12/28 07:17:53;;;;;;;1.90;0.60;;;8.50;89.50;;;;;;5054558;28;20500;-75
2021/12/28 07:20:20;;;;;;;1.90;0.60;;;8.60;89.50;;;;;;5054529;28;20478;-75
2021/12/28 07:22:47;;;;;;;2.07;0.70;;;8.60;88.70;;;;;;5054491;28;20500;-75
2021/12/28 07:25:15;;;;;;;1.90;0.60;;;8.70;88.90;;;;;;5054471;28;20446;-75
2021/12/28 07:27:41;;;;;;;2.00;0.70;;;8.70;88.10;;;;;;5054313;28;20450;-75
2021/12/28 07:30:13;;;;;;;2.20;0.63;;;8.70;88.50;;;;;;5054178;28;20439;-75
2021/12/28 07:32:40;;;;;;;1.90;0.60;;;8.70;88.20;;;;;;5053237;28;20473;-75
2021/12/28 07:35:08;;;;;;;2.00;0.60;;;8.50;88.80;;;;;;5054109;28;20451;-75
2021/12/28 07:37:35;;;;;;;2.00;0.70;;;8.50;89.10;;;;;;5054154;28;20450;-75
2021/12/28 07:40:01;;;;;;;2.00;0.60;;;8.50;88.90;;;;;;5053968;28;20531;-75
2021/12/28 07:42:29;;;;;;;2.17;0.60;;;8.50;89.00;;;;;;5053683;28;20937;-75
2021/12/28 07:44:56;;;;;;;2.33;0.60;;;8.40;89.20;;;;;;5053902;28;20536;-75
2021/12/28 07:47:23;;;;;;;1.90;0.60;;;8.50;89.40;;;;;;5053956;28;20516;-75
2021/12/28 07:49:50;;;;;;;1.90;0.60;;;8.60;89.30;;;;;;5053908;28;20442;-75
2021/12/28 07:52:16;;;;;;;2.10;0.60;;;8.80;88.80;;;;;;5053639;28;20496;-74
2021/12/28 07:54:43;;;;;;;1.90;0.60;;;8.90;88.00;;;;;;5053406;28;21005;-75
2021/12/28 07:57:10;;;;;;;2.00;0.80;;;9.00;88.10;;;;;;5053759;28;20499;-75
2021/12/28 07:59:38;;;;;;;2.10;0.80;;;9.00;87.80;;;;;;5053265;28;20450;-75
2021/12/28 08:02:04;;;;;;;1.97;0.70;;;8.90;87.60;;;;;;5053342;28;20501;-75
2021/12/28 08:04:31;;;;;;;1.90;0.60;;;9.00;87.90;;;;;;5053530;28;20467;-75
2021/12/28 08:06:58;;;;;;;2.30;0.83;;;8.90;88.40;;;;;;5053605;28;20465;-75
2021/12/28 08:09:25;;;;;;;1.90;0.67;;;8.90;89.10;;;;;;5053506;28;20445;-75
2021/12/28 08:11:52;;;;;;;2.77;0.63;;;8.80;88.90;;;;;;5053524;28;20449;-75
2021/12/28 08:14:19;;;;;;;1.90;0.60;;;8.80;89.50;;;;;;5053147;28;20537;-75
2021/12/28 08:16:48;;;;;;;1.90;0.60;;;8.90;89.70;;;;;;5053501;28;20537;-75
2021/12/28 08:19:15;;;;;;;2.77;0.60;;;9.00;89.60;;;;;;5053113;28;20817;-75
2021/12/28 08:21:42;;;;;;;1.90;0.60;;;9.00;89.10;;;;;;5053439;28;20486;-77
2021/12/28 08:24:08;;;;;;;1.90;0.60;;;8.90;89.00;;;;;;5053552;28;20470;-76
2021/12/28 08:26:35;;;;;;;1.90;0.60;;;8.90;89.20;;;;;;5053536;28;20454;-77
2021/12/28 08:29:02;;;;;;;1.90;0.50;;;8.90;88.90;;;;;;5053588;28;20446;-76
2021/12/28 08:31:28;;;;;;;2.00;0.60;;;8.90;89.10;;;;;;5053384;28;20439;-76
2021/12/28 08:33:56;;;;;;;1.90;0.60;;;9.00;89.10;;;;;;5053303;28;20474;-76
2021/12/28 08:36:23;;;;;;;2.30;0.70;;;9.00;88.70;;;;;;5053404;28;20632;-76
2021/12/28 08:38:50;;;;;;;1.90;0.60;;;9.10;88.80;;;;;;5053291;28;20442;-77
2021/12/28 08:41:17;;;;;;;2.00;0.70;;;9.20;87.90;;;;;;5053084;28;20995;-76
2021/12/28 08:43:44;;;;;;;1.90;0.60;;;9.20;88.30;;;;;;5054499;28;20470;-77
2021/12/28 08:46:10;;;;;;;2.00;0.70;;;9.20;88.30;;;;;;5057595;28;20450;-77
2021/12/28 08:48:37;;;;;;;1.90;0.60;;;9.30;87.70;;;;;;5057545;28;20500;-76
2021/12/28 08:51:05;;;;;;;1.90;0.60;;;9.20;87.90;;;;;;5057284;28;20491;-77
2021/12/28 08:53:32;;;;;;;1.90;0.60;;;9.20;88.60;;;;;;5057103;28;20462;-76
2021/12/28 08:55:58;;;;;;;1.90;0.60;;;9.30;88.70;;;;;;5057010;28;20800;-77
2021/12/28 08:58:25;;;;;;;1.90;0.60;;;9.30;88.30;;;;;;5059013;28;20442;-77
2021/12/28 09:00:52;;;;;;;1.90;0.60;;;9.30;88.40;;;;;;5060958;28;20478;-77
2021/12/28 09:03:19;;;;;;;1.90;0.60;;;9.40;88.80;;;;;;5059065;28;20492;-77
2021/12/28 09:05:46;;;;;;;1.90;0.60;;;9.40;88.20;;;;;;5058514;28;20851;-77
2021/12/28 09:08:17;;;;;;;1.90;0.60;;;9.50;88.60;;;;;;5057117;28;20450;-77
2021/12/28 09:10:43;;;;;;;1.90;0.60;;;9.50;88.40;;;;;;5057021;28;20522;-77
2021/12/28 09:13:11;;;;;;;1.90;0.60;;;9.60;88.40;;;;;;5056715;28;20478;-77
2021/12/28 09:15:38;;;;;;;1.90;0.60;;;9.70;88.20;;;;;;5057049;28;20439;-77
2021/12/28 09:18:05;;;;;;;1.90;0.60;;;9.70;88.00;;;;;;5056987;28;20453;-77
2021/12/28 09:20:31;;;;;;;1.83;0.60;;;9.70;88.20;;;;;;5056711;28;20528;-77
2021/12/28 09:22:58;;;;;;;1.90;0.60;;;9.80;88.30;;;;;;5057566;28;20466;-77
2021/12/28 09:25:26;;;;;;;1.90;0.60;;;9.90;87.80;;;;;;5057296;28;20507;-77
2021/12/28 09:27:54;;;;;;;1.90;0.60;;;10.10;87.90;;;;;;5056807;28;20450;-76
2021/12/28 09:30:21;;;;;;;1.90;0.50;;;10.00;87.80;;;;;;5056242;28;21003;-77
2021/12/28 09:32:48;;;;;;;1.90;0.60;;;10.10;88.10;;;;;;5056438;28;20454;-76
2021/12/28 09:35:16;;;;;;;1.90;0.60;;;10.30;87.10;;;;;;5056417;28;20446;-77
2021/12/28 09:37:42;;;;;;;1.90;0.60;;;10.30;87.00;;;;;;5056408;28;20443;-77
2021/12/28 09:40:12;;;;;;;1.90;0.60;;;10.30;87.10;;;;;;5056063;28;20933;-77
2021/12/28 09:42:41;;;;;;;1.93;0.60;;;10.30;87.60;;;;;;5056259;28;20446;-77
2021/12/28 09:45:10;;;;;;;2.00;0.60;;;10.30;87.70;;;;;;5056333;28;20541;-77
2021/12/28 09:47:36;;;;;;;1.90;0.70;;;10.40;87.80;;;;;;5056340;28;20446;-77
2021/12/28 09:50:05;;;;;;;2.17;0.70;;;10.30;87.80;;;;;;5056280;28;20446;-77
2021/12/28 09:52:31;;;;;;;1.83;0.60;;;10.40;87.50;;;;;;5056219;28;20870;-77
2021/12/28 09:54:58;;;;;;;1.90;0.60;;;10.40;87.60;;;;;;5055178;28;20500;-77
2021/12/28 09:57:25;;;;;;;2.17;0.60;;;10.30;87.90;;;;;;5056969;28;20442;-77
2021/12/28 09:59:53;;;;;;;1.90;0.60;;;10.40;88.10;;;;;;5056054;28;20839;-77
2021/12/28 10:02:20;;;;;;;2.10;0.70;;;10.50;88.60;;;;;;5055807;28;20620;-77
2021/12/28 10:04:54;;;;;;;1.90;0.70;;;10.50;88.60;;;;;;5055794;28;20544;-77
2021/12/28 10:07:23;;;;;;;1.90;0.60;;;10.50;87.70;;;;;;5055650;28;20932;-77
2021/12/28 10:09:50;;;;;;;1.90;0.60;;;10.50;87.80;;;;;;5055813;28;20455;-77
2021/12/28 10:12:28;;;;;;;2.93;0.67;;;10.60;87.60;;;;;;5055622;28;20790;-77
2021/12/28 10:15:00;;;;;;;2.10;0.70;;;10.50;87.70;;;;;;5064708;22;20586;-75
2021/12/28 10:17:28;;;;;;;1.90;0.60;;;10.50;88.10;;;;;;5035367;28;20998;-75
2021/12/28 10:19:56;;;;;;;2.20;0.70;;;10.60;88.60;;;;;;5035294;28;20803;-75
2021/12/28 10:22:29;;;;;;;2.00;0.70;;;10.60;88.80;;;;;;5035158;28;20901;-75
2021/12/28 10:24:59;;;;;;;1.87;0.60;;;10.70;88.70;;;;;;5035483;28;20471;-75
2021/12/28 10:27:27;;;;;;;1.90;0.60;;;10.80;88.60;;;;;;5035407;28;20513;-76
2021/12/28 10:30:00;;;;;;;1.90;0.70;;;10.90;88.50;;;;;;5035511;28;20447;-75
2021/12/28 10:32:29;;;;;;;1.87;0.60;;;11.00;87.80;;;;;;5035505;28;20428;-76
2021/12/28 10:34:58;;;;;;;1.90;0.60;;;11.10;87.80;;;;;;5035274;28;20475;-75
2021/12/28 10:37:26;;;;;;;1.87;0.60;;;11.10;87.90;;;;;;5035231;28;20507;-75
2021/12/28 10:39:56;;;;;;;1.90;0.60;;;11.10;89.10;;;;;;5035268;28;20447;-75
2021/12/28 10:42:45;;;;;;;1.83;0.60;;;11.40;88.10;;;;;;5035138;28;20495;-75
2021/12/28 10:45:17;;;;;;;1.83;0.60;;;11.30;88.10;;;;;;5035409;28;20505;-75
2021/12/28 10:47:44;;;;;;;1.90;0.60;;;11.30;88.30;;;;;;5035392;28;20489;-75
2021/12/28 10:50:36;;;;;;;1.90;0.60;;;11.20;89.40;;;;;;5035172;28;20497;-75
2021/12/28 10:53:10;;;;;;;1.93;0.60;;;11.20;89.10;;;;;;5031887;28;20462;-75
2021/12/28 10:55:37;;;;;;;1.87;0.60;;;11.30;88.90;;;;;;5034952;28;20438;-75
2021/12/28 10:58:05;;;;;;;2.80;0.70;;;11.20;89.40;;;;;;5034821;28;20450;-75
2021/12/28 11:00:37;;;;;;;1.90;0.60;;;11.40;89.60;;;;;;5034761;28;20451;-75
2021/12/28 11:03:30;;;;;;;2.00;0.60;;;11.80;88.50;;;;;;5034781;28;20432;-75
2021/12/28 11:05:58;;;;;;;2.10;0.67;;;12.30;87.00;;;;;;5034883;28;20436;-75
2021/12/28 11:08:27;;;;;;;2.10;0.60;;;12.50;86.20;;;;;;5034593;28;20853;-75
2021/12/28 11:10:58;;;;;;;2.00;0.70;;;12.40;85.20;;;;;;5034297;28;20938;-75
2021/12/28 11:13:27;;;;;;;2.30;0.70;;;12.40;85.70;;;;;;5034964;28;20520;-75
2021/12/28 11:15:56;;;;;;;1.93;0.67;;;12.40;85.60;;;;;;5034957;28;20436;-75
2021/12/28 11:18:29;;;;;;;1.90;0.60;;;12.50;85.60;;;;;;5034529;28;20447;-75
2021/12/28 11:20:57;;;;;;;1.90;0.60;;;12.50;85.10;;;;;;5034140;28;20559;-75
2021/12/28 11:23:25;;;;;;;1.90;0.60;;;12.60;85.40;;;;;;5034705;28;20507;-75
2021/12/28 11:26:14;;;;;;;2.40;0.70;;;12.50;85.80;;;;;;5034362;28;20474;-75
2021/12/28 11:28:42;;;;;;;1.93;0.60;;;12.40;85.70;;;;;;5034340;28;20482;-75
2021/12/28 11:31:17;;;;;;;1.97;0.70;;;12.40;86.40;;;;;;5034275;28;20505;-75
2021/12/28 11:33:54;;;;;;;2.00;0.60;;;12.40;86.20;;;;;;5033907;28;20978;-75
2021/12/28 11:36:23;;;;;;;2.03;0.77;;;12.50;86.40;;;;;;5034233;28;20428;-75
2021/12/28 11:38:51;;;;;;;1.97;0.70;;;12.50;86.30;;;;;;5033781;28;20501;-75
2021/12/28 11:41:18;;;;;;;2.57;0.90;;;12.60;85.60;;;;;;5034279;28;20884;-75
2021/12/28 11:43:46;;;;;;;2.00;0.60;;;12.50;85.80;;;;;;5033977;28;20908;-75
2021/12/28 11:46:15;;;;;;;1.97;0.63;;;12.40;86.60;;;;;;5033784;28;20848;-75
2021/12/28 11:48:42;;;;;;;1.93;0.60;;;12.40;86.60;;;;;;5033619;28;21004;-75
2021/12/28 11:51:10;;;;;;;1.97;0.70;;;12.30;86.70;;;;;;5033915;28;20459;-75
2021/12/28 11:53:40;;;;;;;1.90;0.67;;;12.20;87.10;;;;;;5033823;28;20896;-75
2021/12/28 11:56:09;;;;;;;2.10;0.70;;;12.10;87.60;;;;;;5033928;28;20538;-75
2021/12/28 11:59:00;;;;;;;2.00;0.70;;;12.10;87.90;;;;;;5033810;28;20443;-75
2021/12/28 12:01:43;;;;;;;2.20;0.70;;;12.10;88.30;;;;;;5033404;28;21016;-75
2021/12/28 12:04:58;;;;;;;1.90;0.70;;;12.10;88.50;;;;;;5033698;28;20521;-75
2021/12/28 12:07:36;;;;;;;2.00;0.70;;;12.10;88.80;;;;;;5033786;28;20872;-75
2021/12/28 12:10:15;;;;;;;1.93;0.60;;;12.10;88.90;;;;;;5033790;28;20443;-75
2021/12/28 12:12:57;;;;;;;2.03;0.70;;;12.20;88.70;;;;;;5033636;28;20431;-75
2021/12/28 12:15:27;;;;;;;2.20;0.70;;;12.30;88.40;;;;;;5035189;28;20493;-75
2021/12/28 12:18:00;;;;;;;2.00;0.70;;;12.20;88.60;;;;;;5035100;28;20447;-75
2021/12/28 12:20:33;;;;;;;2.10;0.67;;;12.20;88.40;;;;;;5038018;28;20432;-76
2021/12/28 12:23:15;;;;;;;1.97;0.70;;;12.10;88.40;;;;;;5037607;28;20472;-76
2021/12/28 12:25:50;;;;;;;1.90;0.60;;;12.00;89.30;;;;;;5037940;28;20436;-76
2021/12/28 12:28:24;;;;;;;1.90;0.70;;;12.10;89.00;;;;;;5037723;28;20474;-76
2021/12/28 12:30:52;;;;;;;2.10;0.70;;;11.90;89.50;;;;;;5038239;28;21014;-76
2021/12/28 12:33:21;;;;;;;2.00;0.70;;;11.90;89.60;;;;;;5037883;28;20497;-75
2021/12/28 12:35:51;;;;;;;2.10;0.90;;;12.10;89.70;;;;;;5037616;28;20485;-76
2021/12/28 12:38:38;;;;;;;1.90;0.63;;;12.00;89.00;;;;;;5034499;28;20431;-75
2021/12/28 12:41:08;;;;;;;2.97;0.80;;;12.00;89.70;;;;;;5032983;28;20981;-76
2021/12/28 12:43:45;;;;;;;2.10;0.70;;;12.10;89.20;;;;;;5033256;28;20460;-76
2021/12/28 12:46:18;;;;;;;2.10;0.70;;;12.10;89.50;;;;;;5033255;28;20485;-76
2021/12/28 12:49:07;;;;;;;2.10;0.80;;;12.20;89.50;;;;;;5033235;28;20431;-76
2021/12/28 12:51:38;;;;;;;2.43;0.70;;;12.10;89.10;;;;;;5033153;28;20497;-75
2021/12/28 12:54:19;;;;;;;2.00;0.70;;;12.00;89.20;;;;;;5033067;28;20470;-76
2021/12/28 12:57:03;;;;;;;2.00;0.80;;;12.10;88.90;;;;;;5035916;28;20448;-75
2021/12/28 12:59:36;;;;;;;2.00;0.70;;;12.00;88.80;;;;;;5037641;28;20443;-75
2021/12/28 13:02:05;;;;;;;2.20;0.80;;;12.10;89.10;;;;;;5038249;28;20474;-75
2021/12/28 13:04:56;;;;;;;1.90;0.60;;;12.00;88.10;;;;;;5037440;28;20479;-76
2021/12/28 13:07:25;;;;;;;2.00;0.60;;;12.10;88.60;;;;;;5038009;28;20431;-75
2021/12/28 13:10:01;;;;;;;1.90;0.63;;;12.10;87.90;;;;;;5037270;28;20537;-75
2021/12/28 13:12:30;;;;;;;1.97;0.67;;;12.00;88.00;;;;;;5037418;28;20423;-75
2021/12/28 13:14:57;;;;;;;1.90;0.60;;;12.00;87.70;;;;;;5037357;28;20573;-75
2021/12/28 13:17:25;;;;;;;1.87;0.60;;;11.90;87.00;;;;;;5036897;28;20451;-74
2021/12/28 13:20:03;;;;;;;2.20;0.70;;;11.80;87.50;;;;;;5035992;28;20796;-75
2021/12/28 13:22:31;;;;;;;2.10;0.80;;;12.00;87.10;;;;;;5036017;28;20474;-75
2021/12/28 13:24:59;;;;;;;1.93;0.70;;;12.10;87.10;;;;;;5036181;28;20486;-75
2021/12/28 13:27:27;;;;;;;1.90;0.60;;;12.10;85.80;;;;;;5035988;28;20957;-75
2021/12/28 13:29:54;;;;;;;2.00;0.60;;;12.00;86.00;;;;;;5036132;28;20455;-75
2021/12/28 13:32:26;;;;;;;2.00;0.80;;;12.00;86.10;;;;;;5039976;28;20446;-75
2021/12/28 13:35:16;;;;;;;2.00;0.70;;;12.00;86.20;;;;;;5041249;28;20474;-75
2021/12/28 13:37:47;;;;;;;2.43;0.73;;;12.10;85.80;;;;;;5040464;28;20485;-75
2021/12/28 13:40:18;;;;;;;2.20;0.90;;;12.10;85.20;;;;;;5039544;28;20971;-75
2021/12/28 13:42:47;;;;;;;2.20;0.80;;;12.10;85.10;;;;;;5039296;28;20475;-75
2021/12/28 13:45:31;;;;;;;1.90;0.60;;;12.10;84.70;;;;;;5039327;28;20475;-76
2021/12/28 13:47:58;;;;;;;3.60;0.73;;;12.10;84.40;;;;;;5038601;28;20443;-76
2021/12/28 13:50:27;;;;;;;2.63;0.70;;;12.10;84.20;;;;;;5040112;28;20463;-75
2021/12/28 13:52:58;;;;;;;2.30;0.80;;;12.10;84.70;;;;;;5040594;28;20459;-76
2021/12/28 13:55:29;;;;;;;2.30;0.80;;;11.90;84.30;;;;;;5038531;28;21017;-76
2021/12/28 13:57:57;;;;;;;2.40;0.70;;;11.80;85.30;;;;;;5038793;28;20431;-75
2021/12/28 14:00:27;;;;;;;2.10;0.90;;;11.80;85.30;;;;;;5037958;28;20451;-74
2021/12/28 14:03:02;;;;;;;1.93;0.70;;;12.00;84.80;;;;;;5037804;28;20487;-75
2021/12/28 14:05:32;;;;;;;2.83;0.90;;;12.10;84.60;;;;;;5038544;28;20451;-75
2021/12/28 14:08:00;;;;;;;2.30;0.70;;;12.10;84.30;;;;;;5038442;28;20462;-76
2021/12/28 14:10:31;;;;;;;2.20;0.80;;;12.20;84.00;;;;;;5038260;28;20455;-75
2021/12/28 14:13:06;;;;;;;2.10;0.70;;;12.40;83.40;;;;;;5038128;28;20455;-75
2021/12/28 14:16:00;;;;;;;2.00;0.80;;;12.50;83.10;;;;;;5038076;28;20854;-76
2021/12/28 14:18:29;;;;;;;2.00;0.80;;;12.40;83.30;;;;;;5035441;28;20483;-75
2021/12/28 14:21:13;;;;;;;2.10;0.70;;;12.30;83.80;;;;;;5037886;28;20516;-75
2021/12/28 14:23:40;;;;;;;2.63;1.30;;;12.30;84.30;;;;;;5038888;28;20500;-77
2021/12/28 14:26:11;;;;;;;2.00;0.70;;;12.10;84.90;;;;;;5037934;28;20448;-75
2021/12/28 14:28:40;;;;;;;2.83;0.80;;;12.10;85.40;;;;;;5038785;28;20435;-75
2021/12/28 14:31:26;;;;;;;2.00;0.70;;;12.00;85.40;;;;;;5037656;28;20462;-75
2021/12/28 14:33:55;;;;;;;2.20;0.87;;;11.90;86.00;;;;;;5038116;28;20466;-75
2021/12/28 14:36:31;;;;;;;1.90;0.60;;;11.90;86.20;;;;;;5037538;28;20456;-75
2021/12/28 14:39:09;;;;;;;2.00;0.80;;;11.80;86.10;;;;;;5037942;28;20435;-76
2021/12/28 14:41:37;;;;;;;2.13;0.70;;;11.80;86.70;;;;;;5036583;28;20443;-75
2021/12/28 14:44:12;;;;;;;2.00;0.70;;;11.80;86.80;;;;;;5037053;28;20452;-76
2021/12/28 14:46:40;;;;;;;2.20;0.70;;;11.80;87.10;;;;;;5037833;28;20427;-75
2021/12/28 14:49:18;;;;;;;2.20;0.80;;;11.80;87.80;;;;;;5037510;28;20444;-75
2021/12/28 14:51:47;;;;;;;2.10;0.80;;;11.80;88.00;;;;;;5036801;28;20458;-75
2021/12/28 14:54:16;;;;;;;3.70;0.70;;;11.80;88.60;;;;;;5036627;28;20463;-75
2021/12/28 14:56:43;;;;;;;2.57;0.80;;;11.80;88.50;;;;;;5037067;28;20451;-75
2021/12/28 14:59:12;;;;;;;1.97;0.70;;;11.90;88.80;;;;;;5036512;28;20458;-75
2021/12/28 15:01:40;;;;;;;2.10;0.80;;;12.00;88.50;;;;;;5036226;28;20455;-75
2021/12/28 15:04:09;;;;;;;2.20;0.70;;;12.00;88.60;;;;;;5037150;28;20463;-75
2021/12/28 15:06:49;;;;;;;2.20;0.83;;;11.90;88.80;;;;;;5036368;28;20960;-76
2021/12/28 15:09:29;;;;;;;1.90;0.70;;;11.80;89.40;;;;;;5037649;28;20435;-75
2021/12/28 15:12:02;;;;;;;2.13;0.70;;;11.60;89.50;;;;;;5037484;28;20435;-75
2021/12/28 15:14:29;;;;;;;2.40;0.80;;;11.40;90.40;;;;;;5037217;28;20475;-76
2021/12/28 15:16:56;;;;;;;2.30;1.10;;;11.40;91.50;;;;;;5036861;28;20447;-75
2021/12/28 15:19:25;;;;;;;1.90;0.60;;;11.40;91.30;;;;;;5037487;28;20454;-75
2021/12/28 15:21:54;;;;;;;1.97;0.70;;;11.30;91.10;;;;;;5036755;28;20458;-75
2021/12/28 15:24:21;;;;;;;2.37;0.70;;;11.20;89.50;;;;;;5037107;28;20467;-75
2021/12/28 15:26:49;;;;;;;2.47;0.80;;;11.00;87.70;;;;;;5037797;28;20802;-75
2021/12/28 15:29:16;;;;;;;3.13;0.70;;;10.90;86.10;;;;;;5037151;28;20458;-75
2021/12/28 15:31:45;;;;;;;2.47;0.70;;;10.70;86.70;;;;;;5036945;28;20439;-75
2021/12/28 15:34:13;;;;;;;2.10;0.80;;;10.70;86.10;;;;;;5036226;28;20483;-75
2021/12/28 15:36:40;;;;;;;2.10;0.70;;;10.60;85.70;;;;;;5036983;28;20458;-75
2021/12/28 15:39:09;;;;;;;2.00;0.70;;;10.40;84.60;;;;;;5036333;28;20939;-75
2021/12/28 15:41:36;;;;;;;2.40;0.87;;;10.20;84.50;;;;;;5037407;28;20808;-74
2021/12/28 15:44:02;;;;;;;2.00;0.80;;;10.10;85.00;;;;;;5036612;28;20494;-75
2021/12/28 15:46:34;;;;;;;2.10;0.80;;;10.00;84.90;;;;;;5036344;28;20452;-75
2021/12/28 15:49:01;;;;;;;2.10;0.80;;;9.90;84.90;;;;;;5036394;28;20442;-75
2021/12/28 15:51:28;;;;;;;3.10;1.17;;;9.90;85.50;;;;;;5036331;28;20473;-74
2021/12/28 15:53:55;;;;;;;2.10;0.80;;;9.80;85.30;;;;;;5035583;28;20463;-74
2021/12/28 15:56:23;;;;;;;2.10;0.87;;;9.80;85.80;;;;;;5036042;28;20825;-75
2021/12/28 15:58:50;;;;;;;2.30;1.13;;;9.80;85.20;;;;;;5036559;28;20447;-74
2021/12/28 16:01:17;;;;;;;3.40;1.17;;;9.70;85.10;;;;;;5036419;28;20455;-74
2021/12/28 16:03:45;;;;;;;2.70;0.83;;;9.60;85.70;;;;;;5036012;28;20479;-75
2021/12/28 16:06:15;;;;;;;2.60;1.00;;;9.50;86.00;;;;;;5035872;28;20454;-75
2021/12/28 16:08:43;;;;;;;3.83;1.00;;;9.40;86.60;;;;;;5036076;28;20558;-75
2021/12/28 16:11:10;;;;;;;2.70;1.40;;;9.40;86.90;;;;;;5035881;28;20482;-74
2021/12/28 16:13:38;;;;;;;3.73;1.10;;;9.40;87.00;;;;;;5061246;23;20482;-76
2021/12/28 16:16:06;;;;;;;3.03;1.00;;;9.40;86.90;;;;;;5033875;28;20459;-75
2021/12/28 16:18:33;;;;;;;2.07;0.77;;;9.40;87.20;;;;;;5034167;28;20450;-75
2021/12/28 16:21:01;;;;;;;2.33;0.70;;;9.20;86.40;;;;;;5033663;28;20958;-76
2021/12/28 16:23:27;;;;;;;2.80;1.17;;;9.10;87.20;;;;;;5034366;28;20562;-73
2021/12/28 16:25:54;;;;;;;2.13;0.90;;;9.10;87.30;;;;;;5034021;28;20467;-74
2021/12/28 16:28:21;;;;;;;2.30;0.80;;;9.00;86.60;;;;;;5033677;28;20447;-73
2021/12/28 16:30:49;;;;;;;2.50;0.80;;;9.00;86.80;;;;;;5033164;28;20505;-73
2021/12/28 16:33:16;;;;;;;2.30;0.80;;;8.90;87.20;;;;;;5033282;28;20447;-73
2021/12/28 16:35:43;;;;;;;3.13;0.90;;;8.80;86.00;;;;;;5033179;28;20463;-73
2021/12/28 16:38:09;;;;;;;2.80;0.90;;;8.70;86.00;;;;;;5034361;28;20493;-73
2021/12/28 16:40:36;;;;;;;2.00;0.73;;;8.60;86.30;;;;;;5033326;28;20451;-73
2021/12/28 16:43:05;;;;;;;2.10;0.90;;;8.60;86.10;;;;;;5033334;28;20509;-73
2021/12/28 16:45:33;;;;;;;2.67;1.10;;;8.50;86.10;;;;;;5033114;28;20817;-73
2021/12/28 16:48:02;;;;;;;2.63;0.80;;;8.60;86.10;;;;;;5033370;28;20469;-73
2021/12/28 16:50:31;;;;;;;1.97;0.60;;;8.40;85.30;;;;;;5033024;28;20502;-73
2021/12/28 16:52:58;;;;;;;2.10;0.77;;;8.30;85.30;;;;;;5032906;28;20863;-74
2021/12/28 16:55:24;;;;;;;1.90;0.57;;;8.10;85.60;;;;;;5033046;28;20498;-73
2021/12/28 16:57:51;;;;;;;2.13;0.80;;;7.90;85.50;;;;;;5033228;28;20443;-73
2021/12/28 17:00:19;;;;;;;2.10;0.60;;;7.90;85.60;;;;;;5033163;28;20520;-72
2021/12/28 17:02:46;;;;;;;2.00;0.63;;;7.80;85.90;;;;;;5033135;28;20471;-72
2021/12/28 17:05:14;;;;;;;2.20;0.80;;;7.60;85.40;;;;;;5035544;28;20627;-72